createdAt,value
2022-09-06T00:02:09.229Z,96994.63
2022-09-06T00:05:18.598Z,96997.52
2022-09-06T00:07:50.028Z,96998.80
2022-09-06T00:10:25.354Z,97002.48
2022-09-06T00:13:20.252Z,97001.35
2022-09-06T00:16:33.371Z,96997.43
2022-09-06T00:19:31.232Z,96992.90
2022-09-06T00:21:59.504Z,96992.11
2022-09-06T00:24:27.576Z,96991.23
2022-09-06T00:27:11.578Z,96991.27
2022-09-06T00:30:20.351Z,96991.21
2022-09-06T00:33:26.278Z,96986.62
2022-09-06T00:36:00.833Z,96982.17
2022-09-06T00:38:56.558Z,96979.46
2022-09-06T00:42:05.308Z,96976.91
2022-09-06T00:45:14.306Z,96977.81
2022-09-06T00:48:25.427Z,96974.63
2022-09-06T00:51:23.790Z,96975.48
2022-09-06T00:54:33.296Z,96969.66
2022-09-06T00:57:09.893Z,96967.36
2022-09-06T01:00:05.279Z,96965.66
2022-09-06T01:03:22.428Z,96963.20
2022-09-06T01:06:28.305Z,96962.69
2022-09-06T01:09:26.953Z,96963.86
2022-09-06T01:12:21.304Z,96964.95
2022-09-06T01:15:22.820Z,96967.23
2022-09-06T01:18:19.308Z,96969.39
2022-09-06T01:21:33.323Z,96968.83
2022-09-06T01:24:28.319Z,96967.23
2022-09-06T01:27:34.255Z,96966.41
2022-09-06T01:30:20.543Z,96966.29
2022-09-06T01:33:15.261Z,96965.21
2022-09-06T01:36:09.316Z,96967.77
2022-09-06T01:39:18.284Z,96975.73
2022-09-06T01:42:27.313Z,96979.88
2022-09-06T01:45:28.367Z,96978.23
2022-09-06T01:48:36.356Z,96975.83
2022-09-06T01:51:43.245Z,96979.07
2022-09-06T01:54:37.330Z,96981.40
2022-09-06T01:57:40.169Z,96976.86
2022-09-06T02:00:49.319Z,96979.85
2022-09-06T02:04:00.220Z,96976.83
2022-09-06T02:07:20.322Z,96978.36
2022-09-06T02:10:26.326Z,96982.39
2022-09-06T02:13:23.457Z,96985.47
2022-09-06T02:16:08.165Z,96984.56
2022-09-06T02:19:05.356Z,96982.47
2022-09-06T02:22:07.304Z,96972.89
2022-09-06T02:24:59.302Z,96970.77
2022-09-06T02:31:01.420Z,96972.99
2022-09-06T02:34:21.739Z,96974.88
2022-09-06T02:36:50.324Z,96976.73
2022-09-06T02:39:47.572Z,96973.30
2022-09-06T02:42:31.667Z,96974.23
2022-09-06T02:45:26.247Z,96979.23
2022-09-06T02:48:28.011Z,96978.88
2022-09-06T02:51:28.315Z,96986.71
2022-09-06T02:54:22.246Z,96988.48
2022-09-06T02:57:17.346Z,96986.21
2022-09-06T03:00:24.295Z,96979.52
2022-09-06T03:03:22.255Z,96983.31
2022-09-06T03:06:10.350Z,96987.88
2022-09-06T03:09:33.015Z,96986.66
2022-09-06T03:12:13.018Z,96983.34
2022-09-06T03:15:10.304Z,96985.23
2022-09-06T03:18:24.311Z,96983.86
2022-09-06T03:21:20.305Z,96980.70
2022-09-06T03:24:18.395Z,96982.54
2022-09-06T03:27:35.256Z,96986.45
2022-09-06T03:30:50.390Z,96991.58
2022-09-06T03:33:49.298Z,96993.54
2022-09-06T03:37:19.276Z,96991.76
2022-09-06T03:40:37.783Z,96990.76
2022-09-06T03:43:26.440Z,96984.30
2022-09-06T03:46:12.786Z,96986.38
2022-09-06T03:48:56.153Z,96982.56
2022-09-06T03:52:13.347Z,96981.77
2022-09-06T03:55:12.273Z,96976.41
2022-09-06T03:57:42.202Z,96979.52
2022-09-06T04:00:40.509Z,96983.52
2022-09-06T04:04:08.732Z,96993.48
2022-09-06T04:07:48.398Z,97002.20
2022-09-06T04:11:24.490Z,97003.07
2022-09-06T04:14:33.347Z,97001.77
2022-09-06T04:18:09.933Z,97000.92
2022-09-06T04:21:08.789Z,97004.81
2022-09-06T04:28:13.304Z,96998.80
2022-09-06T04:31:49.708Z,97000.71
2022-09-06T04:35:25.359Z,97005.13
2022-09-06T04:38:32.144Z,96995.73
2022-09-06T04:41:18.554Z,96997.80
2022-09-06T04:43:47.208Z,97001.91
2022-09-06T04:46:47.355Z,97002.26
2022-09-06T04:50:10.260Z,97007.55
2022-09-06T04:53:29.813Z,97007.14
2022-09-06T04:56:59.887Z,97010.63
2022-09-06T05:03:15.327Z,97009.69
2022-09-06T05:09:54.282Z,97009.65
2022-09-06T05:13:02.314Z,97016.61
2022-09-06T05:15:56.246Z,97008.91
2022-09-06T05:19:05.351Z,97006.20
2022-09-06T05:22:13.278Z,97002.79
2022-09-06T05:25:20.458Z,96996.62
2022-09-06T05:28:35.456Z,96994.40
2022-09-06T05:31:36.171Z,96995.31
2022-09-06T05:34:31.427Z,96996.79
2022-09-06T05:37:19.751Z,96998.74
2022-09-06T05:40:38.892Z,96997.98
2022-09-06T05:43:48.693Z,97003.21
2022-09-06T05:47:07.720Z,97000.36
2022-09-06T05:50:08.005Z,97003.00
2022-09-06T05:52:49.440Z,96993.34
2022-09-06T05:55:20.244Z,96997.13
2022-09-06T05:57:49.589Z,96996.45
2022-09-06T06:00:17.665Z,96994.45
2022-09-06T06:02:50.126Z,96997.44
2022-09-06T06:05:19.291Z,96996.49
2022-09-06T06:07:47.418Z,96994.31
2022-09-06T06:10:21.023Z,96992.65
2022-09-06T06:12:50.063Z,96989.17
2022-09-06T06:15:25.544Z,96986.74
2022-09-06T06:17:53.715Z,96984.00
2022-09-06T06:20:22.766Z,96983.48
2022-09-06T06:22:50.988Z,96980.06
2022-09-06T06:25:23.076Z,96984.33
2022-09-06T06:27:58.091Z,96986.27
2022-09-06T06:30:28.617Z,96985.05
2022-09-06T06:32:59.930Z,96979.55
2022-09-06T06:36:26.889Z,96983.52
2022-09-06T06:39:15.007Z,96984.58
2022-09-06T06:41:50.806Z,96989.92
2022-09-06T06:44:29.826Z,96997.13
2022-09-06T06:47:02.729Z,96998.66
2022-09-06T06:49:36.598Z,96998.71
2022-09-06T06:52:05.017Z,96998.64
2022-09-06T06:54:44.416Z,97002.61
2022-09-06T06:57:32.105Z,97007.77
2022-09-06T07:00:05.122Z,97006.92
2022-09-06T07:02:36.974Z,97007.89
2022-09-06T07:09:15.929Z,97012.10
2022-09-06T07:30:13.153Z,97005.92
2022-09-06T07:32:56.315Z,97002.73
2022-09-06T07:36:21.629Z,97007.05
2022-09-06T07:39:55.014Z,97006.21
2022-09-06T07:44:10.163Z,97012.46
2022-09-06T08:34:43.163Z,96994.40
2022-09-06T08:38:00.536Z,96994.25
2022-09-06T08:40:54.011Z,96992.36
2022-09-06T08:51:15.232Z,96976.65
2022-09-06T08:55:00.149Z,96981.55
2022-09-06T09:06:18.092Z,96978.06
2022-09-06T09:09:09.816Z,96976.52
2022-09-06T09:15:17.837Z,96974.59
2022-09-06T09:18:02.044Z,96973.66
2022-09-06T09:24:08.288Z,96968.71
2022-09-06T09:27:04.988Z,96961.12
2022-09-06T09:33:07.209Z,96958.79
2022-09-06T09:36:07.654Z,96958.27
2022-09-06T09:38:53.037Z,96956.05
2022-09-06T09:41:39.831Z,96955.77
2022-09-06T09:44:17.304Z,96955.27
2022-09-06T09:46:45.764Z,96950.16
2022-09-06T09:49:29.254Z,96959.22
2022-09-06T09:52:15.995Z,96956.39
2022-09-06T09:54:46.340Z,96952.45
2022-09-06T09:57:19.089Z,96952.75
2022-09-06T10:00:02.109Z,96954.66
2022-09-06T10:02:39.768Z,96954.27
2022-09-06T10:05:20.274Z,96955.32
2022-09-06T10:07:55.418Z,96958.38
2022-09-06T10:10:26.868Z,96954.78
2022-09-06T10:13:34.449Z,96953.70
2022-09-06T10:16:06.308Z,96950.71
2022-09-06T10:18:38.561Z,96953.56
2022-09-06T10:21:13.569Z,96952.58
2022-09-06T10:24:47.192Z,96953.73
2022-09-06T10:28:46.632Z,96951.08
2022-09-06T10:32:06.419Z,96948.06
2022-09-06T10:34:57.735Z,96948.06
2022-09-06T10:37:49.711Z,96951.95
2022-09-06T10:40:32.891Z,96952.85
2022-09-06T10:43:09.025Z,96954.04
2022-09-06T10:45:56.659Z,96951.95
2022-09-06T10:48:33.684Z,96953.15
2022-09-06T10:51:14.843Z,96951.55
2022-09-06T10:54:06.778Z,96952.55
2022-09-06T10:56:44.980Z,96949.77
2022-09-06T11:02:44.831Z,96950.41
2022-09-06T11:11:25.076Z,96947.89
2022-09-06T11:13:53.515Z,96950.04
2022-09-06T11:16:29.032Z,96946.48
2022-09-06T11:19:10.168Z,96945.00
2022-09-06T11:21:58.707Z,96943.70
2022-09-06T11:24:41.104Z,96943.79
2022-09-06T11:27:38.365Z,96944.83
2022-09-06T11:30:19.005Z,96942.89
2022-09-06T11:32:58.395Z,96934.36
2022-09-06T11:35:35.046Z,96928.64
2022-09-06T11:38:27.019Z,96928.25
2022-09-06T11:41:06.339Z,96923.89
2022-09-06T11:43:59.752Z,96929.69
2022-09-06T11:46:57.677Z,96924.14
2022-09-06T11:49:33.005Z,96924.40
2022-09-06T11:52:02.448Z,96922.08
2022-09-06T11:54:44.390Z,96917.70
2022-09-06T11:57:22.613Z,96919.11
2022-09-06T12:00:00.944Z,96916.69
2022-09-06T12:02:46.615Z,96914.45
2022-09-06T12:05:29.628Z,96912.02
2022-09-06T12:08:26.623Z,96906.21
2022-09-06T12:11:03.314Z,96902.04
2022-09-06T12:13:59.535Z,96893.95
2022-09-06T12:20:54.653Z,96885.73
2022-09-06T12:23:42.289Z,96879.61
2022-09-06T12:26:12.411Z,96878.12
2022-09-06T12:28:51.294Z,96874.60
2022-09-06T12:31:36.482Z,96873.59
2022-09-06T12:34:19.331Z,96871.67
2022-09-06T12:36:54.258Z,96869.91
2022-09-06T12:39:23.195Z,96869.13
2022-09-06T12:41:57.459Z,96866.02
2022-09-06T12:44:31.762Z,96860.14
2022-09-06T12:47:07.037Z,96860.13
2022-09-06T12:49:35.901Z,96856.80
2022-09-06T12:52:10.659Z,96851.08
2022-09-06T12:54:49.320Z,96849.30
2022-09-06T12:57:21.426Z,96850.75
2022-09-06T12:59:54.472Z,96850.45
2022-09-06T13:02:41.311Z,96848.70
2022-09-06T13:05:12.566Z,96842.86
2022-09-06T13:07:45.820Z,96840.55
2022-09-06T13:10:18.090Z,96834.52
2022-09-06T13:12:50.625Z,96830.55
2022-09-06T13:15:25.247Z,96835.02
2022-09-06T13:18:13.906Z,96832.52
2022-09-06T13:20:42.809Z,96829.79
2022-09-06T13:23:20.222Z,96826.81
2022-09-06T13:25:55.092Z,96822.30
2022-09-06T13:28:30.011Z,96824.96
2022-09-06T13:31:20.935Z,96819.95
2022-09-06T13:33:57.905Z,96817.06
2022-09-06T13:36:31.804Z,96819.06
2022-09-06T13:39:03.788Z,96812.88
2022-09-06T13:41:38.286Z,96807.09
2022-09-06T13:44:21.535Z,96808.86
2022-09-06T13:46:55.209Z,96810.06
2022-09-06T13:49:43.770Z,96808.55
2022-09-06T13:52:12.209Z,96810.82
2022-09-06T13:54:49.026Z,96806.64
2022-09-06T13:57:29.325Z,96804.17
2022-09-06T14:00:20.885Z,96798.81
2022-09-06T14:02:51.287Z,96801.05
2022-09-06T14:05:19.240Z,96801.83
2022-09-06T14:08:18.471Z,96795.64
2022-09-06T14:10:51.497Z,96795.41
2022-09-06T14:14:04.760Z,96789.88
2022-09-06T14:16:48.069Z,96792.98
2022-09-06T14:19:30.590Z,96789.52
2022-09-06T14:22:06.106Z,96789.02
2022-09-06T14:24:37.909Z,96790.61
2022-09-06T14:27:09.287Z,96791.52
2022-09-06T14:29:52.032Z,96794.86
2022-09-06T14:32:42.878Z,96791.45
2022-09-06T14:36:25.577Z,96787.13
2022-09-06T14:39:20.121Z,96783.23
2022-09-06T14:41:51.853Z,96780.11
2022-09-06T14:45:21.051Z,96781.84
2022-09-06T14:48:18.055Z,96775.23
2022-09-06T14:51:28.998Z,96771.13
2022-09-06T14:54:03.483Z,96767.31
2022-09-06T14:57:14.143Z,96771.42
2022-09-06T14:59:42.094Z,96769.84
2022-09-06T15:02:10.463Z,96767.58
2022-09-06T15:04:38.635Z,96766.63
2022-09-06T15:07:20.437Z,96762.30
2022-09-06T15:09:50.915Z,96758.52
2022-09-06T15:12:19.532Z,96756.90
2022-09-06T15:14:51.588Z,96758.85
2022-09-06T15:17:40.112Z,96752.65
2022-09-06T15:20:12.476Z,96750.47
2022-09-06T15:23:24.271Z,96748.81
2022-09-06T15:26:09.118Z,96747.10
2022-09-06T15:28:39.838Z,96740.57
2022-09-06T15:31:24.141Z,96739.90
2022-09-06T15:34:01.430Z,96740.20
2022-09-06T15:36:33.284Z,96742.31
2022-09-06T15:39:03.126Z,96742.39
2022-09-06T15:41:43.922Z,96743.17
2022-09-06T15:44:17.239Z,96746.77
2022-09-06T15:46:55.252Z,96744.54
2022-09-06T15:49:53.069Z,96743.56
2022-09-06T15:53:08.506Z,96740.84
2022-09-06T15:56:05.234Z,96734.67
2022-09-06T15:58:35.639Z,96736.23
2022-09-06T16:01:25.318Z,96737.52
2022-09-06T16:03:55.788Z,96737.77
2022-09-06T16:06:29.928Z,96736.66
2022-09-06T16:09:04.403Z,96737.70
2022-09-06T16:11:36.549Z,96736.75
2022-09-06T16:14:08.776Z,96736.87
2022-09-06T16:17:06.000Z,96734.30
2022-09-06T16:20:13.739Z,96737.17
2022-09-06T16:23:05.121Z,96734.07
2022-09-06T16:26:33.449Z,96734.52
2022-09-06T16:29:40.315Z,96734.41
2022-09-06T16:32:35.444Z,96734.71
2022-09-06T16:35:50.189Z,96729.61
2022-09-06T16:38:39.988Z,96729.67
2022-09-06T16:41:24.830Z,96727.88
2022-09-06T16:44:20.278Z,96728.68
2022-09-06T16:47:36.126Z,96735.30
2022-09-06T16:50:33.537Z,96732.23
2022-09-06T16:53:45.450Z,96734.38
2022-09-06T16:56:19.655Z,96735.77
2022-09-06T16:58:52.444Z,96736.04
2022-09-06T17:01:22.793Z,96737.38
2022-09-06T17:04:14.344Z,96731.64
2022-09-06T17:07:46.578Z,96738.65
2022-09-06T17:10:14.537Z,96738.88
2022-09-06T17:12:43.679Z,96742.29
2022-09-06T17:15:11.657Z,96739.01
2022-09-06T17:17:39.609Z,96740.04
2022-09-06T17:20:08.404Z,96740.35
2022-09-06T17:22:37.593Z,96745.08
2022-09-06T17:25:08.111Z,96745.70
2022-09-06T17:27:35.955Z,96745.91
2022-09-06T17:30:05.057Z,96747.43
2022-09-06T17:32:33.005Z,96745.17
2022-09-06T17:35:00.839Z,96745.60
2022-09-06T17:37:29.121Z,96750.92
2022-09-06T17:39:57.235Z,96753.05
2022-09-06T17:42:25.736Z,96754.30
2022-09-06T17:44:54.165Z,96748.67
2022-09-06T17:47:25.299Z,96748.83
2022-09-06T17:49:53.565Z,96750.17
2022-09-06T17:52:21.904Z,96756.67
2022-09-06T17:54:51.252Z,96759.42
2022-09-06T17:57:19.381Z,96761.20
2022-09-06T17:59:49.999Z,96761.96
2022-09-06T18:02:18.125Z,96764.73
2022-09-06T18:04:46.362Z,96769.73
2022-09-06T18:07:14.536Z,96770.31
2022-09-06T18:09:42.869Z,96768.55
2022-09-06T18:12:11.087Z,96770.08
2022-09-06T18:14:39.354Z,96769.25
2022-09-06T18:21:16.937Z,96780.80
2022-09-06T18:24:37.244Z,96780.98
2022-09-06T18:38:52.082Z,96792.07
2022-09-06T18:43:11.918Z,96790.25
2022-09-06T18:50:16.109Z,96796.48
2022-09-06T18:52:44.156Z,96792.81
2022-09-06T18:55:12.169Z,96790.98
2022-09-06T18:57:40.158Z,96795.04
2022-09-06T19:00:09.658Z,96801.35
2022-09-06T19:02:38.063Z,96806.42
2022-09-06T19:05:06.631Z,96806.33
2022-09-06T19:07:34.632Z,96801.98
2022-09-06T19:10:02.983Z,96802.15
2022-09-06T19:12:31.420Z,96798.35
2022-09-06T19:14:59.248Z,96798.78
2022-09-06T19:17:27.571Z,96793.20
2022-09-06T19:19:55.580Z,96789.50
2022-09-06T19:22:23.743Z,96785.34
2022-09-06T19:24:51.583Z,96787.14
2022-09-06T19:27:19.683Z,96787.42
2022-09-06T19:29:48.168Z,96785.33
2022-09-06T19:32:18.644Z,96784.23
2022-09-06T19:34:46.475Z,96781.23
2022-09-06T19:37:17.302Z,96779.52
2022-09-06T19:39:45.234Z,96781.76
2022-09-06T19:42:13.038Z,96782.38
2022-09-06T19:44:41.097Z,96780.23
2022-09-06T19:47:09.061Z,96777.33
2022-09-06T19:49:37.017Z,96778.74
2022-09-06T19:52:09.805Z,96777.48
2022-09-06T19:54:38.759Z,96776.27
2022-09-06T19:57:21.776Z,96781.02
2022-09-06T19:59:54.755Z,96785.10
2022-09-06T20:02:25.420Z,96791.27
2022-09-06T20:04:53.609Z,96789.31
2022-09-06T20:07:22.347Z,96789.21
2022-09-06T20:09:52.593Z,96781.65
2022-09-06T20:12:41.312Z,96778.05
2022-09-06T20:15:49.568Z,96774.77
2022-09-06T20:18:34.862Z,96776.90
2022-09-06T20:21:05.663Z,96773.35
2022-09-06T20:23:45.534Z,96773.94
2022-09-06T20:26:33.501Z,96771.73
2022-09-06T20:29:11.974Z,96770.14
2022-09-06T20:31:50.066Z,96770.13
2022-09-06T20:34:21.460Z,96772.14
2022-09-06T20:36:49.737Z,96768.50
2022-09-06T20:39:22.225Z,96767.75
2022-09-06T20:42:10.449Z,96766.90
2022-09-06T20:44:38.694Z,96762.19
2022-09-06T20:47:07.431Z,96761.23
2022-09-06T20:49:37.250Z,96761.02
2022-09-06T20:52:05.759Z,96760.94
2022-09-06T20:54:37.036Z,96757.50
2022-09-06T20:57:13.094Z,96760.81
2022-09-06T20:59:43.214Z,96764.56
2022-09-06T21:02:11.729Z,96761.44
2022-09-06T21:04:39.974Z,96762.41
2022-09-06T21:07:28.641Z,96762.39
2022-09-06T21:09:57.876Z,96763.91
2022-09-06T21:12:29.930Z,96763.02
2022-09-06T21:15:06.573Z,96765.96
2022-09-06T21:17:38.680Z,96769.35
2022-09-06T21:20:07.830Z,96771.45
2022-09-06T21:22:36.203Z,96768.50
2022-09-06T21:25:28.647Z,96768.33
2022-09-06T21:27:58.156Z,96769.39
2022-09-06T21:30:26.329Z,96769.66
2022-09-06T21:32:58.388Z,96773.43
2022-09-06T21:35:34.454Z,96772.47
2022-09-06T21:38:26.096Z,96769.52
2022-09-06T21:40:54.534Z,96763.75
2022-09-06T21:43:22.868Z,96759.38
2022-09-06T21:45:51.562Z,96754.25
2022-09-06T21:48:23.987Z,96748.98
2022-09-06T21:50:54.728Z,96746.13
2022-09-06T21:53:27.920Z,96742.55
2022-09-06T21:56:27.683Z,96736.30
2022-09-06T22:03:21.131Z,96734.00
2022-09-06T22:10:10.764Z,96725.94
2022-09-06T22:13:42.517Z,96727.84
2022-09-06T22:17:04.888Z,96728.95
2022-09-06T22:20:17.971Z,96733.34
2022-09-06T22:26:50.519Z,96731.23
2022-09-06T22:30:04.376Z,96732.55
2022-09-06T22:33:15.006Z,96730.85
2022-09-06T22:36:28.850Z,96732.38
2022-09-06T22:39:10.058Z,96729.57
2022-09-06T22:41:38.625Z,96728.19
2022-09-06T22:44:27.993Z,96727.02
2022-09-06T22:46:57.282Z,96726.27
2022-09-06T22:49:25.675Z,96723.44
2022-09-06T22:52:13.924Z,96719.11
2022-09-06T22:54:42.822Z,96712.88
2022-09-06T22:57:21.199Z,96708.08
2022-09-06T22:59:52.356Z,96703.31
2022-09-06T23:02:40.313Z,96700.80
2022-09-06T23:05:09.185Z,96705.81
2022-09-06T23:08:06.552Z,96711.84
2022-09-06T23:11:14.759Z,96710.56
2022-09-06T23:13:44.701Z,96705.75
2022-09-06T23:16:17.244Z,96706.38
2022-09-06T23:18:48.014Z,96705.77
2022-09-06T23:21:36.658Z,96707.40
2022-09-06T23:24:07.678Z,96703.97
2022-09-06T23:26:43.748Z,96704.61
2022-09-06T23:29:13.055Z,96705.63
2022-09-06T23:31:42.656Z,96703.77
2022-09-06T23:34:24.413Z,96702.86
2022-09-06T23:37:25.550Z,96699.81
2022-09-06T23:40:10.515Z,96695.88
2022-09-06T23:42:38.540Z,96697.58
2022-09-06T23:45:21.862Z,96694.97
2022-09-06T23:48:17.212Z,96696.02
2022-09-06T23:50:54.360Z,96701.48
2022-09-06T23:53:22.909Z,96699.73
2022-09-06T23:55:51.030Z,96699.88
2022-09-06T23:58:19.072Z,96697.02
